Time;durP1;ratioP1;P1;durP2;ratioP2;P2;SDS_P1;SDS_P2;PMS_P1;PMS_P2;Temp;Humidity;BMP_temperature;BMP_pressure;BME280_temperature;BME280_humidity;BME280_pressure;Samples;Min_cycle;Max_cycle;Signal;HPM_P1;HPM_P2
2023/08/25 00:01:46;;;;;;;2.97;1.80;;;25.80;97.70;;;;;;5057447;28;20214;-86
2023/08/25 00:04:12;;;;;;;2.20;1.70;;;25.80;97.70;;;;;;5074154;28;20172;-86
2023/08/25 00:06:37;;;;;;;2.77;1.57;;;25.80;97.70;;;;;;5054839;28;20462;-85
2023/08/25 00:09:06;;;;;;;1.67;1.57;;;25.80;97.80;;;;;;5059521;28;20187;-85
2023/08/25 00:11:32;;;;;;;2.73;1.60;;;25.80;97.80;;;;;;5056612;28;20204;-85
2023/08/25 00:13:57;;;;;;;3.07;1.80;;;25.70;97.70;;;;;;5062155;28;20186;-86
2023/08/25 00:16:23;;;;;;;2.17;1.50;;;25.70;97.80;;;;;;5056740;28;20172;-85
2023/08/25 00:18:49;;;;;;;1.70;1.50;;;25.70;97.80;;;;;;5058672;28;20188;-86
2023/08/25 00:21:14;;;;;;;2.17;1.50;;;25.70;97.80;;;;;;5054704;28;20186;-86
2023/08/25 00:23:41;;;;;;;1.77;1.43;;;25.70;97.90;;;;;;5074068;28;20179;-86
2023/08/25 00:26:09;;;;;;;1.50;1.40;;;25.70;97.90;;;;;;5048557;28;20187;-86
2023/08/25 00:28:38;;;;;;;1.63;1.50;;;25.70;97.90;;;;;;5058007;28;20446;-86
2023/08/25 00:31:07;;;;;;;1.93;1.50;;;25.70;97.90;;;;;;5074223;28;20250;-86
2023/08/25 00:33:32;;;;;;;1.93;1.57;;;25.70;97.90;;;;;;5058005;28;20199;-86
2023/08/25 00:35:58;;;;;;;2.73;1.80;;;25.70;97.80;;;;;;5057856;28;20232;-86
2023/08/25 00:38:28;;;;;;;2.73;1.70;;;25.70;97.90;;;;;;5053410;28;20171;-86
2023/08/25 00:40:53;;;;;;;2.30;1.57;;;25.70;97.90;;;;;;5075035;28;20179;-86
2023/08/25 00:43:22;;;;;;;2.90;1.50;;;25.60;97.90;;;;;;5075723;28;20256;-86
2023/08/25 00:45:48;;;;;;;1.67;1.37;;;25.60;97.90;;;;;;5072201;28;20464;-86
2023/08/25 00:48:16;;;;;;;3.10;1.60;;;25.60;97.90;;;;;;5057005;28;20168;-86
2023/08/25 00:50:42;;;;;;;2.23;1.60;;;25.60;97.90;;;;;;5076380;28;20175;-86
2023/08/25 00:53:11;;;;;;;2.20;1.57;;;25.60;97.90;;;;;;5063741;28;20206;-86
2023/08/25 00:55:40;;;;;;;3.30;1.60;;;25.60;97.90;;;;;;5076060;28;20233;-86
2023/08/25 00:58:07;;;;;;;2.23;1.60;;;25.60;97.90;;;;;;5064639;28;20167;-86
2023/08/25 01:00:37;;;;;;;1.70;1.50;;;25.60;97.90;;;;;;5050692;28;20215;-86
2023/08/25 01:03:06;;;;;;;2.67;1.60;;;25.60;97.90;;;;;;5073548;28;20572;-86
2023/08/25 01:05:31;;;;;;;2.67;1.50;;;25.60;97.90;;;;;;5058295;28;20270;-86
2023/08/25 01:07:57;;;;;;;1.87;1.50;;;25.60;97.90;;;;;;5051427;28;20185;-86
2023/08/25 01:10:35;;;;;;;2.10;1.40;;;25.60;97.90;;;;;;5057792;28;20196;-86
2023/08/25 01:13:20;;;;;;;1.80;1.50;;;25.60;97.90;;;;;;5070836;28;20269;-86
2023/08/25 01:15:49;;;;;;;1.50;1.40;;;25.60;97.90;;;;;;5069439;28;20172;-86
2023/08/25 01:18:33;;;;;;;1.77;1.50;;;25.60;97.90;;;;;;5057675;28;20362;-86
2023/08/25 01:21:00;;;;;;;2.87;1.63;;;25.60;97.90;;;;;;5071038;28;20260;-86
2023/08/25 01:23:38;;;;;;;2.33;1.57;;;25.60;97.90;;;;;;5053777;28;20171;-86
2023/08/25 01:26:04;;;;;;;2.13;1.67;;;25.60;97.90;;;;;;5073211;28;20270;-86
2023/08/25 01:28:33;;;;;;;1.67;1.53;;;25.50;97.90;;;;;;5052677;28;20673;-86
2023/08/25 01:30:59;;;;;;;1.87;1.43;;;25.50;97.90;;;;;;5072618;28;20175;-86
2023/08/25 01:33:31;;;;;;;2.60;1.70;;;25.60;98.00;;;;;;5054433;28;20165;-86
2023/08/25 01:36:15;;;;;;;1.60;1.50;;;25.50;97.90;;;;;;5071498;28;20222;-86
2023/08/25 01:39:04;;;;;;;1.73;1.60;;;25.50;97.90;;;;;;5073017;28;20176;-86
2023/08/25 01:41:48;;;;;;;1.80;1.50;;;25.50;97.90;;;;;;5071892;28;20197;-86
2023/08/25 01:44:17;;;;;;;1.53;1.43;;;25.50;97.90;;;;;;5072229;28;20262;-86
2023/08/25 01:47:00;;;;;;;1.90;1.60;;;25.50;97.90;;;;;;5056996;28;20635;-86
2023/08/25 01:49:28;;;;;;;1.60;1.40;;;25.50;98.00;;;;;;5069273;28;20268;-86
2023/08/25 01:51:59;;;;;;;2.17;1.50;;;25.50;97.90;;;;;;5072301;28;20199;-86
2023/08/25 01:54:27;;;;;;;1.50;1.40;;;25.50;97.90;;;;;;5054127;28;20176;-86
2023/08/25 01:56:53;;;;;;;1.40;1.30;;;25.50;98.00;;;;;;5071892;28;20183;-85
2023/08/25 01:59:32;;;;;;;1.63;1.40;;;25.50;98.00;;;;;;5073053;28;20179;-86
2023/08/25 02:01:58;;;;;;;2.30;1.50;;;25.50;98.00;;;;;;5055385;28;20188;-86
2023/08/25 02:04:36;;;;;;;1.57;1.20;;;25.50;98.00;;;;;;5055259;28;20193;-86
2023/08/25 02:07:04;;;;;;;1.30;1.20;;;25.50;98.10;;;;;;5048900;28;20518;-86
2023/08/25 02:09:33;;;;;;;2.13;1.70;;;25.50;98.10;;;;;;5051468;28;20194;-86
2023/08/25 02:12:02;;;;;;;1.50;1.40;;;25.40;98.10;;;;;;5071456;28;20532;-86
2023/08/25 02:14:30;;;;;;;1.90;1.50;;;25.50;98.10;;;;;;5054934;28;20345;-86
2023/08/25 02:16:59;;;;;;;1.90;1.40;;;25.50;98.10;;;;;;5070880;28;20180;-86
2023/08/25 02:19:24;;;;;;;2.13;1.50;;;25.40;98.10;;;;;;5051883;28;20176;-86
2023/08/25 02:21:50;;;;;;;1.53;1.37;;;25.40;98.10;;;;;;5054980;28;20194;-86
2023/08/25 02:24:18;;;;;;;1.67;1.57;;;25.50;98.10;;;;;;5055877;28;20200;-86
2023/08/25 02:26:44;;;;;;;1.90;1.33;;;25.40;98.10;;;;;;5056319;28;20184;-86
2023/08/25 02:29:11;;;;;;;1.60;1.50;;;25.40;98.10;;;;;;5028353;28;20183;-86
2023/08/25 02:31:40;;;;;;;1.40;1.30;;;25.40;98.10;;;;;;5071461;28;20874;-86
2023/08/25 02:34:08;;;;;;;1.77;1.33;;;25.40;98.10;;;;;;5071895;28;20195;-86
2023/08/25 02:36:34;;;;;;;1.53;1.20;;;25.40;98.10;;;;;;5056948;28;20187;-86
2023/08/25 02:39:10;;;;;;;1.60;1.50;;;25.40;98.20;;;;;;5056922;28;20176;-86
2023/08/25 02:41:35;;;;;;;1.87;1.50;;;25.40;98.20;;;;;;5060767;28;20244;-86
2023/08/25 02:44:01;;;;;;;2.43;1.50;;;25.40;98.20;;;;;;5068887;28;20188;-86
2023/08/25 02:49:44;;;;;;;3.07;1.43;;;25.40;98.30;;;;;;5002938;28;20284;-86
2023/08/25 02:52:19;;;;;;;2.20;1.60;;;25.30;98.30;;;;;;4996278;28;20503;-85
2023/08/25 02:54:47;;;;;;;1.90;1.40;;;25.40;98.30;;;;;;4980837;28;20520;-86
2023/08/25 02:57:16;;;;;;;1.90;1.43;;;25.40;98.30;;;;;;4994699;28;20178;-86
2023/08/25 02:59:54;;;;;;;2.20;1.40;;;25.40;98.30;;;;;;4976880;28;20194;-86
2023/08/25 03:02:21;;;;;;;1.73;1.60;;;25.30;98.30;;;;;;4992118;28;20264;-85
2023/08/25 03:04:49;;;;;;;6.43;1.73;;;25.40;98.30;;;;;;5001031;28;20313;-85
2023/08/25 03:07:15;;;;;;;1.77;1.50;;;25.30;98.30;;;;;;5035833;28;20283;-85
2023/08/25 03:09:40;;;;;;;1.67;1.50;;;25.30;98.30;;;;;;5057090;28;20278;-85
2023/08/25 03:12:14;;;;;;;1.47;1.30;;;25.30;98.40;;;;;;5070061;28;20213;-85
2023/08/25 03:14:46;;;;;;;1.50;1.40;;;25.30;98.40;;;;;;5072947;28;20562;-86
2023/08/25 03:17:11;;;;;;;2.07;1.53;;;25.30;98.40;;;;;;5070025;28;20340;-85
2023/08/25 03:19:37;;;;;;;1.73;1.63;;;25.30;98.40;;;;;;5054270;28;20557;-85
2023/08/25 03:22:04;;;;;;;1.70;1.60;;;25.30;98.40;;;;;;5050112;28;20565;-85
2023/08/25 03:24:29;;;;;;;1.87;1.40;;;25.30;98.40;;;;;;5054170;28;20194;-85
2023/08/25 03:26:57;;;;;;;2.93;1.57;;;25.30;98.40;;;;;;5052883;28;20179;-85
2023/08/25 03:29:23;;;;;;;1.77;1.60;;;25.30;98.40;;;;;;5070365;28;20175;-85
2023/08/25 03:31:52;;;;;;;2.70;1.40;;;25.30;98.40;;;;;;5047649;28;20219;-85
2023/08/25 03:34:21;;;;;;;1.60;1.30;;;25.30;98.40;;;;;;5054123;28;20229;-85
2023/08/25 03:36:47;;;;;;;1.90;1.20;;;25.30;98.40;;;;;;5072093;28;20203;-85
2023/08/25 03:39:13;;;;;;;2.17;1.70;;;25.20;98.40;;;;;;5054060;28;20305;-85
2023/08/25 03:41:42;;;;;;;1.57;1.30;;;25.30;98.50;;;;;;5075049;28;20220;-85
2023/08/25 03:44:07;;;;;;;2.13;1.63;;;25.30;98.40;;;;;;5072437;28;20183;-85
2023/08/25 03:46:33;;;;;;;1.80;1.50;;;25.20;98.40;;;;;;5071811;28;20244;-85
2023/08/25 03:49:06;;;;;;;2.27;1.43;;;25.20;98.40;;;;;;5059509;28;20280;-85
2023/08/25 03:51:32;;;;;;;1.53;1.43;;;25.20;98.40;;;;;;5056493;28;20238;-85
2023/08/25 03:53:59;;;;;;;2.50;1.57;;;25.20;98.40;;;;;;5049103;28;20177;-86
2023/08/25 03:56:24;;;;;;;1.67;1.50;;;25.20;98.40;;;;;;5074587;28;20175;-86
2023/08/25 03:58:50;;;;;;;1.77;1.40;;;25.20;98.40;;;;;;5071246;28;20184;-86
2023/08/25 04:01:16;;;;;;;1.53;1.43;;;25.20;98.40;;;;;;5057663;28;20180;-85
2023/08/25 04:03:41;;;;;;;1.40;1.30;;;25.20;98.50;;;;;;5072533;28;20182;-85
2023/08/25 04:06:07;;;;;;;2.33;1.60;;;25.20;98.50;;;;;;5056932;28;20628;-85
2023/08/25 04:08:36;;;;;;;2.07;1.50;;;25.20;98.50;;;;;;5056858;28;20413;-85
2023/08/25 04:11:02;;;;;;;2.27;1.47;;;25.20;98.50;;;;;;5052456;28;20522;-85
2023/08/25 04:13:31;;;;;;;1.50;1.40;;;25.20;98.50;;;;;;5068801;28;20179;-85
2023/08/25 04:15:57;;;;;;;2.53;1.50;;;25.20;98.50;;;;;;5063023;28;20175;-85
2023/08/25 04:18:26;;;;;;;2.47;1.80;;;25.20;98.60;;;;;;5073453;28;20746;-86
2023/08/25 04:20:52;;;;;;;1.63;1.50;;;25.20;98.60;;;;;;5053513;28;20175;-86
2023/08/25 04:23:24;;;;;;;2.40;1.80;;;25.20;98.60;;;;;;5074411;28;20381;-86
2023/08/25 04:25:50;;;;;;;3.57;1.50;;;25.10;98.60;;;;;;5058174;28;20278;-85
2023/08/25 04:28:16;;;;;;;1.83;1.60;;;25.10;98.60;;;;;;5054509;28;20182;-86
2023/08/25 04:30:42;;;;;;;4.17;1.60;;;25.10;98.60;;;;;;5060582;28;20184;-84
2023/08/25 04:33:08;;;;;;;2.67;1.60;;;25.10;98.70;;;;;;5055506;28;20214;-85
2023/08/25 04:35:36;;;;;;;1.97;1.63;;;25.10;98.70;;;;;;5050198;28;20648;-85
2023/08/25 04:38:02;;;;;;;3.37;1.63;;;25.20;98.70;;;;;;5069962;28;20248;-85
2023/08/25 04:40:28;;;;;;;2.03;1.60;;;25.10;98.70;;;;;;5057468;28;20176;-85
2023/08/25 04:42:56;;;;;;;2.00;1.50;;;25.10;98.70;;;;;;5068542;28;20184;-85
2023/08/25 04:45:22;;;;;;;3.40;1.63;;;25.10;98.70;;;;;;5050893;28;20204;-85
2023/08/25 04:47:50;;;;;;;4.27;1.60;;;25.10;98.70;;;;;;5049580;28;20226;-84
2023/08/25 04:50:18;;;;;;;2.67;1.60;;;25.10;98.70;;;;;;5044413;28;20278;-85
2023/08/25 04:52:47;;;;;;;2.97;1.60;;;25.10;98.70;;;;;;5054422;28;20203;-85
2023/08/25 04:55:16;;;;;;;2.10;1.60;;;25.10;98.70;;;;;;5050551;28;20194;-85
2023/08/25 04:57:42;;;;;;;2.43;1.70;;;25.10;98.70;;;;;;5055744;28;20175;-84
2023/08/25 05:00:39;;;;;;;2.70;1.60;;;25.10;98.70;;;;;;5050531;28;20184;-85
2023/08/25 05:03:10;;;;;;;2.27;1.57;;;25.10;98.70;;;;;;5048856;28;20563;-84
2023/08/25 05:05:38;;;;;;;2.80;1.70;;;25.10;98.70;;;;;;5040419;28;20184;-84
2023/08/25 05:08:07;;;;;;;2.10;1.63;;;25.10;98.70;;;;;;5041250;28;20368;-85
2023/08/25 05:10:36;;;;;;;2.33;1.77;;;25.10;98.70;;;;;;5039576;28;20399;-85
2023/08/25 05:13:03;;;;;;;2.83;1.70;;;25.10;98.60;;;;;;5043524;28;20215;-85
2023/08/25 05:15:29;;;;;;;2.33;1.93;;;25.10;98.50;;;;;;5042338;28;20528;-85
2023/08/25 05:17:55;;;;;;;2.63;1.60;;;25.10;98.40;;;;;;5043832;28;20180;-85
2023/08/25 05:20:24;;;;;;;2.97;1.70;;;25.10;98.40;;;;;;5041862;28;20461;-85
2023/08/25 05:22:52;;;;;;;1.97;1.70;;;25.20;98.40;;;;;;5057968;28;20194;-85
2023/08/25 05:25:21;;;;;;;3.10;1.70;;;25.20;98.30;;;;;;5038116;28;20192;-84
2023/08/25 05:27:47;;;;;;;3.87;1.93;;;25.20;98.30;;;;;;5039130;28;20200;-85
2023/08/25 05:30:16;;;;;;;2.07;1.50;;;25.20;98.30;;;;;;5059192;28;20217;-85
2023/08/25 05:32:45;;;;;;;3.87;1.70;;;25.20;98.20;;;;;;5038023;28;20259;-85
2023/08/25 05:35:13;;;;;;;2.63;1.77;;;25.30;98.10;;;;;;5043891;28;20180;-85
2023/08/25 05:37:45;;;;;;;2.20;1.63;;;25.30;97.90;;;;;;5037107;28;20210;-85
2023/08/25 05:40:14;;;;;;;1.70;1.60;;;25.40;97.70;;;;;;5067809;28;20183;-85
2023/08/25 05:42:43;;;;;;;2.93;1.50;;;25.40;97.60;;;;;;5034358;28;20188;-85
2023/08/25 05:45:12;;;;;;;3.03;1.70;;;25.40;97.50;;;;;;5051431;28;20181;-86
2023/08/25 05:47:38;;;;;;;4.43;1.80;;;25.40;97.60;;;;;;5033409;28;20207;-86
2023/08/25 05:50:07;;;;;;;2.03;1.60;;;25.40;97.50;;;;;;5052881;28;20435;-86
2023/08/25 05:52:32;;;;;;;1.80;1.50;;;25.40;97.40;;;;;;5054089;28;20249;-86
2023/08/25 05:55:01;;;;;;;4.00;1.80;;;25.40;97.40;;;;;;5035203;28;20477;-85
2023/08/25 05:57:30;;;;;;;1.83;1.57;;;25.40;97.40;;;;;;5055649;28;20176;-85
2023/08/25 05:59:59;;;;;;;2.93;1.83;;;25.40;97.40;;;;;;5051734;28;20222;-86
2023/08/25 06:02:25;;;;;;;1.90;1.50;;;25.40;97.40;;;;;;5035724;28;20457;-86
2023/08/25 06:04:51;;;;;;;2.97;1.63;;;25.40;97.30;;;;;;5035507;28;20241;-85
2023/08/25 06:07:19;;;;;;;2.00;1.70;;;25.40;97.30;;;;;;5035776;28;20184;-86
2023/08/25 06:09:47;;;;;;;1.90;1.63;;;25.40;97.30;;;;;;5033583;28;20269;-86
2023/08/25 06:12:13;;;;;;;3.80;2.00;;;25.40;97.20;;;;;;5037683;28;20624;-86
2023/08/25 06:14:39;;;;;;;3.17;1.60;;;25.40;97.20;;;;;;5037268;28;20346;-86
2023/08/25 06:17:07;;;;;;;1.70;1.40;;;25.40;97.20;;;;;;5036594;28;20192;-86
2023/08/25 06:19:37;;;;;;;2.57;1.60;;;25.40;97.20;;;;;;5034630;28;20183;-85
2023/08/25 06:22:06;;;;;;;1.80;1.70;;;25.40;97.20;;;;;;5038951;28;20191;-85
2023/08/25 06:24:34;;;;;;;2.30;1.60;;;25.40;97.10;;;;;;5045766;28;20258;-85
2023/08/25 06:27:03;;;;;;;2.47;1.40;;;25.40;97.10;;;;;;5061060;28;20238;-85
2023/08/25 06:29:32;;;;;;;2.13;1.90;;;25.50;97.00;;;;;;5050085;28;20341;-85
2023/08/25 06:32:02;;;;;;;1.87;1.67;;;25.50;97.00;;;;;;5042111;28;20290;-85
2023/08/25 06:34:35;;;;;;;3.03;1.70;;;25.60;97.00;;;;;;5035282;28;20692;-87
2023/08/25 06:37:03;;;;;;;2.40;1.80;;;25.60;96.90;;;;;;5046296;28;20203;-87
2023/08/25 06:39:32;;;;;;;3.37;1.80;;;25.60;96.70;;;;;;5065336;28;20458;-87
2023/08/25 06:42:05;;;;;;;2.77;1.67;;;25.70;96.60;;;;;;5062057;28;20192;-87
2023/08/25 06:44:34;;;;;;;2.10;1.60;;;25.70;96.40;;;;;;5057152;28;20624;-87
2023/08/25 06:47:02;;;;;;;1.80;1.60;;;25.80;96.30;;;;;;5058169;28;20782;-87
2023/08/25 06:49:28;;;;;;;2.27;1.80;;;25.90;96.20;;;;;;5057775;28;20201;-87
2023/08/25 06:51:56;;;;;;;1.93;1.70;;;25.90;96.00;;;;;;5042183;28;20211;-87
2023/08/25 06:54:26;;;;;;;2.60;1.60;;;25.90;95.90;;;;;;5040076;28;20585;-87
2023/08/25 06:56:52;;;;;;;2.03;1.70;;;26.00;95.90;;;;;;5064188;28;20186;-87
2023/08/25 06:59:18;;;;;;;1.70;1.60;;;26.00;95.80;;;;;;5041167;28;20283;-87
2023/08/25 07:01:44;;;;;;;1.93;1.60;;;26.00;95.70;;;;;;5037849;28;20455;-87
2023/08/25 07:04:13;;;;;;;2.50;1.60;;;26.10;95.60;;;;;;5034468;28;20177;-87
2023/08/25 07:06:41;;;;;;;2.97;1.97;;;26.20;95.50;;;;;;5043152;28;20215;-87
2023/08/25 07:09:13;;;;;;;1.90;1.70;;;26.20;95.40;;;;;;5039417;28;20180;-87
2023/08/25 07:11:38;;;;;;;1.80;1.60;;;26.20;95.40;;;;;;5037541;28;20790;-87
2023/08/25 07:14:10;;;;;;;2.57;1.70;;;26.20;95.40;;;;;;5041201;28;20180;-87
2023/08/25 07:16:39;;;;;;;2.33;1.67;;;26.10;95.40;;;;;;5060110;28;20180;-87
2023/08/25 07:19:08;;;;;;;4.13;1.67;;;26.00;95.60;;;;;;5040521;28;20243;-87
2023/08/25 07:21:36;;;;;;;3.23;1.60;;;26.00;95.70;;;;;;5044350;28;20183;-86
2023/08/25 07:24:03;;;;;;;2.20;2.00;;;26.00;95.70;;;;;;5061796;28;20190;-86
2023/08/25 07:26:32;;;;;;;1.80;1.70;;;26.00;95.70;;;;;;5053713;28;20183;-86
2023/08/25 07:29:00;;;;;;;2.20;1.80;;;26.00;95.70;;;;;;5043239;28;20187;-86
2023/08/25 07:31:28;;;;;;;2.00;1.80;;;25.90;95.80;;;;;;5061792;28;20187;-87
2023/08/25 07:33:58;;;;;;;2.20;1.90;;;25.90;95.80;;;;;;5036832;28;20427;-87
2023/08/25 07:36:27;;;;;;;2.20;1.73;;;26.10;95.80;;;;;;5035167;28;20430;-87
2023/08/25 07:38:54;;;;;;;2.10;1.53;;;26.20;95.50;;;;;;5056104;28;20436;-87
2023/08/25 07:41:23;;;;;;;2.73;1.90;;;26.20;95.20;;;;;;5036567;28;20183;-87
2023/08/25 07:43:51;;;;;;;1.83;1.60;;;26.30;95.20;;;;;;5049733;28;20437;-87
2023/08/25 07:46:20;;;;;;;2.13;1.67;;;26.20;95.10;;;;;;5036816;28;20198;-87
2023/08/25 07:48:50;;;;;;;2.00;1.80;;;26.30;95.20;;;;;;5053254;28;20278;-86
2023/08/25 07:51:22;;;;;;;2.13;1.70;;;26.20;95.20;;;;;;5034693;28;20286;-88
2023/08/25 07:53:51;;;;;;;2.77;1.60;;;26.20;95.20;;;;;;5056195;28;20172;-88
2023/08/25 07:56:22;;;;;;;1.87;1.70;;;26.20;95.30;;;;;;5032494;28;20191;-89
2023/08/25 07:58:50;;;;;;;2.60;1.70;;;26.20;95.40;;;;;;5038012;28;20184;-88
2023/08/25 08:01:16;;;;;;;2.10;1.80;;;26.10;95.40;;;;;;5054828;28;20237;-89
2023/08/25 08:03:42;;;;;;;1.70;1.60;;;26.10;95.50;;;;;;5034437;28;20189;-88
2023/08/25 08:06:10;;;;;;;2.60;1.80;;;26.10;95.60;;;;;;5038627;28;20573;-88
2023/08/25 08:08:51;;;;;;;2.00;1.73;;;26.00;95.60;;;;;;5034974;28;20459;-88
2023/08/25 08:11:18;;;;;;;2.33;1.80;;;26.00;95.80;;;;;;5036885;28;20248;-88
2023/08/25 08:13:47;;;;;;;2.43;1.80;;;26.00;95.80;;;;;;5032694;28;20673;-89
2023/08/25 08:16:13;;;;;;;2.73;1.70;;;26.00;95.80;;;;;;5044701;28;20240;-88
2023/08/25 08:18:43;;;;;;;2.20;1.70;;;25.90;95.80;;;;;;5033408;28;20180;-88
2023/08/25 08:21:11;;;;;;;2.53;1.83;;;25.90;95.90;;;;;;5034736;28;20176;-89
2023/08/25 08:23:40;;;;;;;2.03;1.63;;;25.80;96.20;;;;;;5053354;28;20267;-88
2023/08/25 08:26:10;;;;;;;2.43;1.77;;;25.70;96.30;;;;;;5037781;28;20172;-89
2023/08/25 08:28:38;;;;;;;1.97;1.70;;;25.70;96.40;;;;;;5043106;28;20244;-90
2023/08/25 08:31:17;;;;;;;2.77;1.97;;;25.60;96.60;;;;;;5039031;28;20180;-89
2023/08/25 08:33:52;;;;;;;1.90;1.70;;;25.60;96.70;;;;;;5044520;28;20256;-90
2023/08/25 08:36:21;;;;;;;1.97;1.63;;;25.60;96.80;;;;;;5063532;28;20179;-90
2023/08/25 08:39:02;;;;;;;2.10;1.90;;;25.60;96.80;;;;;;5040141;28;20348;-90
2023/08/25 08:41:28;;;;;;;2.37;1.80;;;25.60;96.90;;;;;;5057379;28;20296;-90
2023/08/25 08:44:06;;;;;;;2.77;1.60;;;25.60;96.90;;;;;;5043301;28;20282;-90
2023/08/25 08:46:37;;;;;;;2.40;1.53;;;25.60;96.90;;;;;;5054307;28;20184;-91
2023/08/25 08:49:09;;;;;;;2.43;1.73;;;25.60;96.90;;;;;;5039522;28;20193;-89
2023/08/25 08:51:40;;;;;;;1.90;1.70;;;25.60;97.00;;;;;;5038390;28;20215;-90
2023/08/25 08:54:19;;;;;;;2.10;1.90;;;25.50;96.90;;;;;;5038131;28;20327;-90
2023/08/25 08:56:46;;;;;;;1.70;1.60;;;25.50;97.00;;;;;;5040403;28;20396;-90
2023/08/25 08:59:12;;;;;;;2.30;1.83;;;25.50;97.00;;;;;;5053735;28;20191;-90
2023/08/25 09:01:44;;;;;;;2.43;1.80;;;25.50;97.10;;;;;;5039447;28;20337;-90
2023/08/25 09:04:20;;;;;;;2.20;2.00;;;25.50;97.10;;;;;;5039672;28;20428;-91
2023/08/25 09:21:21;;;;;;;2.20;1.67;;;25.50;96.90;;;;;;5062810;28;20936;0
2023/08/25 09:24:03;;;;;;;2.47;1.80;;;25.40;97.60;;;;;;5047590;28;20456;0
2023/08/25 09:26:36;;;;;;;2.33;1.77;;;25.40;97.40;;;;;;5053514;28;20226;0
2023/08/25 09:30:08;;;;;;;2.47;1.73;;;25.50;97.30;;;;;;5062838;28;20413;0
2023/08/25 09:33:03;;;;;;;2.63;2.00;;;25.60;97.30;;;;;;5016253;28;20218;0
2023/08/25 09:35:40;;;;;;;2.73;1.60;;;25.60;97.20;;;;;;5030383;28;20458;0
2023/08/25 09:38:07;;;;;;;2.63;1.73;;;25.60;97.20;;;;;;5057055;28;20346;0
2023/08/25 09:40:36;;;;;;;1.80;1.70;;;25.60;97.20;;;;;;5053791;28;20203;0
2023/08/25 09:43:03;;;;;;;1.90;1.70;;;25.60;97.30;;;;;;5058961;28;20184;0
2023/08/25 09:45:33;;;;;;;2.07;1.87;;;25.60;97.20;;;;;;5050133;28;20187;0
2023/08/25 09:48:12;;;;;;;2.60;1.70;;;25.60;97.10;;;;;;5056564;28;20588;0
2023/08/25 09:50:42;;;;;;;2.47;1.77;;;25.60;97.30;;;;;;5058854;28;20176;0
2023/08/25 09:53:10;;;;;;;2.87;1.63;;;25.60;97.00;;;;;;5055761;28;20176;0
2023/08/25 09:55:37;;;;;;;2.03;1.70;;;25.60;97.10;;;;;;5060239;28;20527;0
2023/08/25 09:58:08;;;;;;;2.20;1.90;;;25.60;97.10;;;;;;5056402;28;20554;0
2023/08/25 10:00:41;;;;;;;2.63;2.10;;;25.60;97.20;;;;;;5054279;28;20223;0
2023/08/25 10:03:09;;;;;;;2.87;2.10;;;25.60;97.20;;;;;;5058424;28;20308;0
2023/08/25 10:05:36;;;;;;;1.93;1.70;;;25.60;97.30;;;;;;5061531;28;20172;0
2023/08/25 10:08:02;;;;;;;2.17;1.93;;;25.60;97.20;;;;;;5078427;28;20178;0
2023/08/25 10:10:33;;;;;;;2.77;1.93;;;25.60;97.20;;;;;;5064239;28;20176;0
2023/08/25 10:13:03;;;;;;;2.20;1.90;;;25.60;97.10;;;;;;5076362;28;20168;0
2023/08/25 10:15:30;;;;;;;3.63;2.00;;;25.60;97.10;;;;;;5061424;28;20183;0
2023/08/25 10:18:06;;;;;;;2.30;1.90;;;25.50;97.20;;;;;;5059455;28;20172;0
2023/08/25 10:20:35;;;;;;;2.43;2.00;;;25.60;97.20;;;;;;5072922;28;20699;0
2023/08/25 10:23:01;;;;;;;2.50;1.83;;;25.60;97.20;;;;;;5056467;28;20443;0
2023/08/25 10:25:29;;;;;;;3.30;1.90;;;25.60;97.30;;;;;;5058149;28;20296;0
2023/08/25 10:28:00;;;;;;;2.40;1.97;;;25.50;97.30;;;;;;5073328;28;20892;0
2023/08/25 10:30:27;;;;;;;2.60;1.97;;;25.50;97.40;;;;;;5057564;28;20423;0
2023/08/25 10:32:56;;;;;;;3.27;2.20;;;25.50;97.40;;;;;;5045549;28;20283;0
2023/08/25 10:35:40;;;;;;;2.20;2.00;;;25.50;97.50;;;;;;5046827;28;20259;0
2023/08/25 10:38:17;;;;;;;4.03;2.20;;;25.50;97.60;;;;;;5045809;28;20569;0
2023/08/25 10:40:50;;;;;;;2.80;1.90;;;25.50;97.60;;;;;;5044370;28;20663;0
2023/08/25 10:43:24;;;;;;;2.50;2.00;;;25.50;97.70;;;;;;5048160;28;20351;0
2023/08/25 10:45:51;;;;;;;2.93;1.90;;;25.40;97.80;;;;;;5045724;28;20214;0
2023/08/25 10:48:17;;;;;;;2.77;2.00;;;25.40;97.90;;;;;;5056662;28;20168;0
2023/08/25 10:50:47;;;;;;;3.40;2.13;;;25.40;97.90;;;;;;5072086;28;20254;0
2023/08/25 10:53:45;;;;;;;3.30;1.80;;;25.50;97.90;;;;;;5056949;28;20165;0
2023/08/25 10:56:15;;;;;;;2.10;1.90;;;25.40;98.00;;;;;;5053491;28;20234;0
2023/08/25 10:59:04;;;;;;;4.60;2.30;;;25.40;98.00;;;;;;5056075;28;20203;0
2023/08/25 11:01:35;;;;;;;3.83;1.97;;;25.40;98.10;;;;;;5048868;28;20189;0
2023/08/25 11:04:24;;;;;;;3.37;2.20;;;25.40;98.10;;;;;;5036623;28;20169;0
2023/08/25 11:07:02;;;;;;;2.47;2.10;;;25.40;98.10;;;;;;5036917;28;20255;0
2023/08/25 11:09:35;;;;;;;2.20;2.00;;;25.40;98.10;;;;;;5036545;28;20179;0
2023/08/25 11:12:08;;;;;;;3.67;1.83;;;25.40;98.30;;;;;;5036734;28;20169;0
2023/08/25 11:14:36;;;;;;;3.57;2.23;;;25.30;98.40;;;;;;5039277;28;20234;0
2023/08/25 11:17:11;;;;;;;2.93;2.20;;;25.30;98.40;;;;;;5056798;28;20255;0
2023/08/25 11:19:39;;;;;;;3.00;2.00;;;25.30;98.50;;;;;;5055377;28;20207;0
2023/08/25 11:22:08;;;;;;;3.07;2.10;;;25.30;98.50;;;;;;5056998;28;20168;0
2023/08/25 11:24:34;;;;;;;4.23;1.97;;;25.30;98.50;;;;;;5057495;28;20195;0
2023/08/25 11:27:05;;;;;;;2.57;1.80;;;25.30;98.60;;;;;;5057071;28;20459;0
2023/08/25 11:29:31;;;;;;;3.00;1.90;;;25.30;98.60;;;;;;5057269;28;20164;0
2023/08/25 11:31:57;;;;;;;2.37;2.17;;;25.30;98.60;;;;;;5057172;28;20190;0
2023/08/25 11:34:26;;;;;;;3.17;2.10;;;25.30;98.50;;;;;;5056053;28;20266;0
2023/08/25 11:36:52;;;;;;;2.50;1.80;;;25.30;98.50;;;;;;5057178;28;20230;0
2023/08/25 11:39:21;;;;;;;2.37;1.90;;;25.40;98.40;;;;;;5057212;28;20238;0
2023/08/25 11:41:46;;;;;;;2.80;1.83;;;25.40;98.30;;;;;;5055348;28;20165;0
2023/08/25 11:44:14;;;;;;;2.37;2.07;;;25.40;98.20;;;;;;5055152;28;20459;0
2023/08/25 11:46:41;;;;;;;3.93;2.10;;;25.60;98.10;;;;;;5056071;28;20688;0
2023/08/25 11:49:07;;;;;;;4.13;2.23;;;25.60;98.00;;;;;;5055976;28;20191;0
2023/08/25 11:51:36;;;;;;;2.43;1.70;;;25.60;97.90;;;;;;5055349;28;20168;0
2023/08/25 11:54:05;;;;;;;2.80;1.70;;;25.60;97.80;;;;;;5071886;28;20173;0
2023/08/25 11:56:31;;;;;;;2.90;2.00;;;25.60;97.70;;;;;;5055585;28;20183;0
2023/08/25 11:58:57;;;;;;;2.63;1.90;;;25.60;97.80;;;;;;5070601;28;20180;0
2023/08/25 12:01:30;;;;;;;2.10;1.90;;;25.60;97.70;;;;;;5054766;28;20191;0
2023/08/25 12:04:18;;;;;;;3.13;1.80;;;25.60;97.70;;;;;;5055581;28;20263;0
2023/08/25 12:06:49;;;;;;;3.13;1.80;;;25.60;97.80;;;;;;5055688;28;20168;0
2023/08/25 12:09:15;;;;;;;3.17;1.93;;;25.60;97.80;;;;;;5056820;28;20180;0
2023/08/25 12:11:41;;;;;;;2.27;1.87;;;25.60;97.70;;;;;;5055716;28;20262;0
2023/08/25 12:14:07;;;;;;;1.87;1.70;;;25.70;97.60;;;;;;5054720;28;20172;0
2023/08/25 12:16:42;;;;;;;2.30;2.00;;;25.70;97.50;;;;;;5054081;28;20180;0
2023/08/25 12:19:10;;;;;;;2.13;1.70;;;25.70;97.50;;;;;;5068611;28;20207;-1
2023/08/25 12:21:38;;;;;;;2.23;1.90;;;25.60;97.50;;;;;;5069728;28;20828;-1
2023/08/25 12:24:04;;;;;;;1.97;1.70;;;25.60;97.50;;;;;;5053494;28;20168;-1
2023/08/25 12:26:30;;;;;;;2.73;1.73;;;25.60;97.50;;;;;;5069197;28;20175;-1
2023/08/25 12:28:58;;;;;;;3.53;1.90;;;25.60;97.50;;;;;;5053549;28;20239;-1
2023/08/25 12:31:24;;;;;;;1.80;1.70;;;25.60;97.60;;;;;;5053770;28;20446;-1
2023/08/25 12:33:49;;;;;;;2.53;1.77;;;25.60;97.60;;;;;;5054553;28;20259;-1
2023/08/25 12:36:18;;;;;;;2.03;1.80;;;25.60;97.70;;;;;;5053953;28;20281;-1
2023/08/25 12:38:43;;;;;;;2.37;1.83;;;25.60;97.70;;;;;;5070615;28;20596;-1
2023/08/25 12:41:09;;;;;;;1.90;1.63;;;25.60;97.70;;;;;;5069911;28;20180;-1
2023/08/25 12:43:35;;;;;;;1.83;1.60;;;25.60;97.70;;;;;;5069140;28;20251;-1
2023/08/25 12:46:01;;;;;;;1.83;1.70;;;25.60;97.80;;;;;;5053050;28;20156;-1
2023/08/25 12:48:26;;;;;;;2.90;1.63;;;25.60;97.80;;;;;;5052875;28;20168;-1
2023/08/25 12:50:55;;;;;;;2.17;1.77;;;25.60;97.80;;;;;;5054391;28;20160;-1
2023/08/25 12:53:24;;;;;;;2.20;1.70;;;25.60;97.80;;;;;;5052550;28;20181;-1
2023/08/25 12:55:49;;;;;;;2.23;1.60;;;25.60;97.70;;;;;;5055038;28;20195;-1
2023/08/25 12:58:15;;;;;;;2.63;1.93;;;25.60;97.70;;;;;;5070031;28;20168;-1
2023/08/25 13:00:53;;;;;;;2.30;1.80;;;25.60;97.70;;;;;;5053213;28;20212;-1
2023/08/25 13:03:19;;;;;;;1.70;1.60;;;25.70;97.70;;;;;;5054589;28;20163;-1
2023/08/25 13:05:48;;;;;;;3.13;1.80;;;25.70;97.60;;;;;;5070596;28;20172;-1
2023/08/25 13:08:14;;;;;;;2.27;1.87;;;25.70;97.50;;;;;;5053619;28;20582;-1
2023/08/25 13:10:43;;;;;;;1.97;1.70;;;25.70;97.50;;;;;;5053836;28;20172;-1
2023/08/25 13:13:11;;;;;;;1.77;1.67;;;25.70;97.50;;;;;;5054412;28;20174;-1
2023/08/25 13:15:37;;;;;;;1.80;1.60;;;25.80;97.40;;;;;;5053899;28;20696;-1
2023/08/25 13:18:03;;;;;;;3.53;1.90;;;25.90;97.40;;;;;;5053180;28;20851;-1
2023/08/25 13:20:28;;;;;;;1.90;1.53;;;25.80;97.30;;;;;;5053040;28;20208;-1
2023/08/25 13:22:57;;;;;;;2.17;1.53;;;25.80;97.30;;;;;;5069058;28;20225;-1